Time;durP1;ratioP1;P1;durP2;ratioP2;P2;SDS_P1;SDS_P2;PMS_P1;PMS_P2;Temp;Humidity;BMP_temperature;BMP_pressure;BME280_temperature;BME280_humidity;BME280_pressure;Samples;Min_cycle;Max_cycle;Signal;HPM_P1;HPM_P2
2023/03/19 00:01:54;;;;;;;4.37;3.43;;;;;;;11.02;100.00;101283.63;5111540;28;20248;-70
2023/03/19 00:04:19;;;;;;;5.37;3.23;;;;;;;11.01;100.00;101280.19;5108854;28;20270;-70
2023/03/19 00:06:45;;;;;;;4.40;3.23;;;;;;;11.04;100.00;101276.81;5110771;28;20188;-71
2023/03/19 00:09:11;;;;;;;5.17;3.50;;;;;;;11.00;100.00;101282.69;5106005;28;20208;-72
2023/03/19 00:11:37;;;;;;;5.63;3.07;;;;;;;10.96;100.00;101289.44;5107251;28;20220;-72
2023/03/19 00:14:02;;;;;;;4.13;2.77;;;;;;;10.93;100.00;101288.53;5109402;28;20291;-70
2023/03/19 00:16:28;;;;;;;6.60;3.73;;;;;;;10.93;100.00;101281.69;5094137;28;20196;-71
2023/03/19 00:18:53;;;;;;;4.27;3.70;;;;;;;10.92;100.00;101286.78;5108318;28;20554;-71
2023/03/19 00:21:20;;;;;;;4.80;4.30;;;;;;;10.91;100.00;101280.78;5107559;28;20212;-71
2023/03/19 00:23:45;;;;;;;4.53;3.77;;;;;;;10.91;100.00;101278.22;5092321;28;20781;-70
2023/03/19 00:26:11;;;;;;;6.43;4.00;;;;;;;10.93;100.00;101289.38;5112333;28;20199;-72
2023/03/19 00:28:36;;;;;;;6.53;4.60;;;;;;;10.89;100.00;101289.25;5091659;28;20200;-71
2023/03/19 00:31:11;;;;;;;4.77;3.80;;;;;;;10.85;100.00;101285.78;5112168;28;20234;-70
2023/03/19 00:33:37;;;;;;;4.43;4.03;;;;;;;10.84;100.00;101281.47;5089241;28;20188;-70
2023/03/19 00:36:04;;;;;;;4.63;3.80;;;;;;;10.84;100.00;101284.03;5109288;28;20272;-70
2023/03/19 00:38:31;;;;;;;5.67;4.13;;;;;;;10.81;100.00;101283.97;5091113;28;20196;-70
2023/03/19 00:40:56;;;;;;;5.23;4.07;;;;;;;10.78;100.00;101278.75;5090143;28;20215;-73
2023/03/19 00:43:22;;;;;;;4.27;3.87;;;;;;;10.68;100.00;101287.03;5108520;28;20191;-71
2023/03/19 00:45:47;;;;;;;5.30;4.53;;;;;;;10.60;100.00;101290.22;5093430;28;20190;-70
2023/03/19 00:48:13;;;;;;;4.50;4.10;;;;;;;10.59;100.00;101285.91;5092016;28;20175;-70
2023/03/19 00:50:39;;;;;;;6.00;4.27;;;;;;;10.55;100.00;101286.69;5108180;28;20192;-69
2023/03/19 00:53:04;;;;;;;5.97;4.40;;;;;;;10.49;100.00;101295.06;5108997;28;20901;-70
2023/03/19 00:55:30;;;;;;;4.63;4.03;;;;;;;10.49;100.00;101291.63;5087351;28;20188;-69
2023/03/19 00:57:56;;;;;;;5.00;4.17;;;;;;;10.45;100.00;101287.22;5091663;28;20619;-71
2023/03/19 01:00:22;;;;;;;6.07;4.47;;;;;;;10.45;100.00;101289.78;5092367;28;20187;-70
2023/03/19 01:02:47;;;;;;;5.87;4.23;;;;;;;10.38;100.00;101290.47;5106443;28;20200;-70
2023/03/19 01:05:13;;;;;;;6.00;4.80;;;;;;;10.35;100.00;101295.50;5088953;28;20672;-69
2023/03/19 01:07:39;;;;;;;7.33;4.67;;;;;;;10.30;100.00;101295.38;5110921;28;20687;-69
2023/03/19 01:10:05;;;;;;;6.47;4.70;;;;;;;10.29;100.00;101298.78;5090677;28;20187;-69
2023/03/19 01:12:30;;;;;;;6.37;4.83;;;;;;;10.23;100.00;101290.91;5089481;28;20264;-70
2023/03/19 01:14:56;;;;;;;6.27;4.50;;;;;;;10.19;100.00;101295.91;5100249;27;20231;-70
2023/03/19 01:17:22;;;;;;;4.70;4.17;;;;;;;10.18;100.00;101294.19;5089300;28;20204;-69
2023/03/19 01:19:48;;;;;;;4.93;4.10;;;;;;;10.16;100.00;101290.69;5089105;28;20256;-69
2023/03/19 01:22:15;;;;;;;4.87;4.43;;;;;;;10.09;100.00;101289.66;5108900;28;20211;-69
2023/03/19 01:24:44;;;;;;;5.93;4.73;;;;;;;10.03;100.00;101288.56;5088957;28;20196;-70
2023/03/19 01:27:10;;;;;;;6.37;4.60;;;;;;;10.01;100.00;101293.69;5092088;28;20211;-69
2023/03/19 01:29:36;;;;;;;7.13;4.57;;;;;;;9.98;100.00;101282.47;5090714;28;20214;-70
2023/03/19 01:32:09;;;;;;;7.30;4.93;;;;;;;9.98;100.00;101282.47;5091271;28;20233;-70
2023/03/19 01:34:53;;;;;;;6.80;4.70;;;;;;;9.94;100.00;101294.31;5109346;28;20224;-70
2023/03/19 01:37:19;;;;;;;5.40;4.90;;;;;;;9.96;100.00;101296.91;5109351;28;20298;-69
2023/03/19 01:39:45;;;;;;;4.83;4.40;;;;;;;9.95;100.00;101293.47;5090364;28;20207;-69
2023/03/19 01:42:13;;;;;;;5.20;4.70;;;;;;;9.97;100.00;101289.28;5109378;28;20227;-69
2023/03/19 01:44:54;;;;;;;5.67;5.07;;;;;;;9.97;100.00;101284.19;5091749;28;20195;-69
2023/03/19 01:47:42;;;;;;;5.17;4.67;;;;;;;9.92;100.00;101293.41;5091502;28;20264;-70
2023/03/19 01:50:24;;;;;;;6.50;4.60;;;;;;;9.96;100.00;101287.53;5108552;28;20279;-70
2023/03/19 01:52:58;;;;;;;5.40;4.90;;;;;;;9.96;100.00;101284.97;5091065;28;20211;-69
2023/03/19 01:55:33;;;;;;;5.40;4.50;;;;;;;9.96;100.00;101281.56;5091392;28;20630;-73
2023/03/19 01:58:19;;;;;;;5.23;4.73;;;;;;;9.94;100.00;101286.63;5090143;28;20203;-69
2023/03/19 02:01:12;;;;;;;5.63;4.83;;;;;;;9.95;100.00;101279.84;5105770;28;20653;-69
2023/03/19 02:03:42;;;;;;;5.30;4.77;;;;;;;9.90;100.00;101279.69;5092004;28;20191;-70
2023/03/19 02:06:19;;;;;;;5.20;4.70;;;;;;;9.88;100.00;101276.25;5094751;28;20182;-72
2023/03/19 02:08:46;;;;;;;6.57;5.50;;;;;;;9.86;100.00;101282.13;5110474;28;20195;-71
2023/03/19 02:11:12;;;;;;;5.90;5.00;;;;;;;9.83;100.00;101276.91;5088730;28;20218;-72
2023/03/19 02:13:38;;;;;;;6.37;4.93;;;;;;;9.87;100.00;101279.59;5107372;27;20196;-71
2023/03/19 02:16:03;;;;;;;7.40;5.30;;;;;;;9.88;100.00;101281.34;5105842;28;20194;-71
2023/03/19 02:18:30;;;;;;;8.17;5.13;;;;;;;9.89;100.00;101285.63;5090667;28;20202;-71
2023/03/19 02:21:08;;;;;;;5.60;5.00;;;;;;;9.88;100.00;101278.78;5088366;28;20222;-71
2023/03/19 02:24:11;;;;;;;5.37;4.70;;;;;;;9.86;100.00;101289.81;5089634;28;20282;-71
2023/03/19 02:27:01;;;;;;;6.33;4.80;;;;;;;9.83;100.00;101282.03;5097514;28;20187;-71
2023/03/19 02:29:26;;;;;;;6.00;5.40;;;;;;;9.81;100.00;101281.13;5090768;28;20195;-70
2023/03/19 02:31:55;;;;;;;5.63;5.13;;;;;;;9.74;100.00;101282.63;5090212;28;20215;-70
2023/03/19 02:34:20;;;;;;;5.77;5.27;;;;;;;9.70;100.00;101279.94;5107452;28;20931;-70
2023/03/19 02:36:50;;;;;;;6.23;5.63;;;;;;;9.65;100.00;101284.94;5091786;28;20208;-71
2023/03/19 02:39:37;;;;;;;5.80;5.20;;;;;;;9.62;100.00;101283.94;5091748;28;20225;-71
2023/03/19 02:42:03;;;;;;;5.63;5.13;;;;;;;9.58;100.00;101290.66;5099617;28;20294;-70
2023/03/19 02:44:30;;;;;;;6.47;5.73;;;;;;;9.57;100.00;101291.47;5088714;28;20196;-72
2023/03/19 02:46:55;;;;;;;7.37;5.30;;;;;;;9.56;100.00;101299.09;5074621;28;20615;-70
2023/03/19 02:49:21;;;;;;;6.03;5.33;;;;;;;9.53;100.00;101291.31;5109214;28;20198;-70
2023/03/19 02:51:46;;;;;;;6.70;5.70;;;;;;;9.48;100.00;101288.66;5090695;28;20210;-70
2023/03/19 02:54:12;;;;;;;5.23;4.57;;;;;;;9.44;100.00;101286.81;5085740;28;20192;-70
2023/03/19 02:56:37;;;;;;;6.03;5.43;;;;;;;9.43;100.00;101287.66;5107655;28;20253;-70
2023/03/19 02:59:04;;;;;;;7.63;4.90;;;;;;;9.44;100.00;101281.69;5092675;28;20255;-69
2023/03/19 03:01:29;;;;;;;9.30;5.40;;;;;;;9.42;100.00;101285.03;5085893;28;20900;-71
2023/03/19 03:03:55;;;;;;;5.40;4.90;;;;;;;9.42;100.00;101285.91;5091272;28;20183;-70
2023/03/19 03:06:21;;;;;;;7.80;5.60;;;;;;;9.41;100.00;101281.63;5090195;28;20179;-70
2023/03/19 03:08:47;;;;;;;8.13;5.83;;;;;;;9.38;100.00;101284.06;5104207;28;20188;-71
2023/03/19 03:11:12;;;;;;;6.60;5.37;;;;;;;9.31;100.00;101287.25;5085047;28;20204;-70
2023/03/19 03:13:38;;;;;;;5.83;5.20;;;;;;;9.26;100.00;101288.78;5090858;28;20554;-72
2023/03/19 03:16:03;;;;;;;5.87;5.27;;;;;;;9.20;100.00;101301.38;5089840;28;20223;-70
2023/03/19 03:18:29;;;;;;;6.40;5.33;;;;;;;9.17;100.00;101300.44;5108394;28;20199;-70
2023/03/19 03:20:54;;;;;;;6.27;5.67;;;;;;;9.18;100.00;101299.59;5088558;28;20192;-70
2023/03/19 03:23:20;;;;;;;5.50;5.00;;;;;;;9.11;100.00;101300.19;5090895;28;20632;-69
2023/03/19 03:25:50;;;;;;;6.63;5.80;;;;;;;9.10;100.00;101304.47;5108830;28;20199;-69
2023/03/19 03:28:16;;;;;;;7.13;5.10;;;;;;;9.05;100.00;101308.56;5107572;28;20192;-69
2023/03/19 03:30:42;;;;;;;5.70;5.10;;;;;;;9.02;100.00;101308.44;5104816;28;20191;-69
2023/03/19 03:33:08;;;;;;;5.57;5.07;;;;;;;8.99;100.00;101305.78;5106528;28;20191;-70
2023/03/19 03:35:34;;;;;;;5.20;4.70;;;;;;;8.96;100.00;101304.81;5105116;28;20555;-69
2023/03/19 03:37:59;;;;;;;5.60;5.10;;;;;;;8.92;100.00;101302.97;5106687;28;20200;-69
2023/03/19 03:40:26;;;;;;;5.10;4.60;;;;;;;8.86;100.00;101308.78;5093130;28;20358;-69
2023/03/19 03:42:51;;;;;;;5.87;4.57;;;;;;;8.82;100.00;101306.06;5086513;28;20215;-70
2023/03/19 03:45:17;;;;;;;4.90;4.40;;;;;;;8.78;100.00;101306.75;5104113;28;20188;-71
2023/03/19 03:47:44;;;;;;;4.90;4.40;;;;;;;8.73;100.00;101305.75;5088358;28;20194;-71
2023/03/19 03:50:10;;;;;;;5.13;4.70;;;;;;;8.67;100.00;101303.00;5106575;28;20187;-70
2023/03/19 03:52:37;;;;;;;6.80;5.57;;;;;;;8.67;100.00;101303.84;5088824;28;21041;-69
2023/03/19 03:55:03;;;;;;;5.60;5.00;;;;;;;8.67;100.00;101292.78;5103331;28;20283;-70
2023/03/19 03:57:29;;;;;;;6.50;5.20;;;;;;;8.67;100.00;101288.53;5085452;28;20326;-70
2023/03/19 03:59:55;;;;;;;5.97;5.33;;;;;;;8.62;100.00;101296.84;5091891;28;20672;-70
2023/03/19 04:02:21;;;;;;;6.70;5.47;;;;;;;8.55;100.00;101295.78;5086182;28;20211;-72
2023/03/19 04:04:47;;;;;;;5.43;4.80;;;;;;;8.55;100.00;101293.22;5090400;28;20555;-73
2023/03/19 04:07:13;;;;;;;6.73;5.30;;;;;;;8.53;100.00;101299.09;5083296;28;20186;-71
2023/03/19 04:09:45;;;;;;;9.23;6.87;;;;;;;8.48;100.00;101298.06;5073013;28;20191;-72
2023/03/19 04:12:12;;;;;;;13.20;9.00;;;;;;;8.42;100.00;101296.16;5087284;28;20307;-72
2023/03/19 04:14:37;;;;;;;13.60;9.03;;;;;;;8.42;100.00;101301.25;5089014;28;20212;-70
2023/03/19 04:17:04;;;;;;;12.93;9.27;;;;;;;8.36;100.00;101298.50;5089658;28;20203;-72
2023/03/19 04:19:30;;;;;;;15.73;11.20;;;;;;;8.30;100.00;101303.38;5084661;28;20246;-71
2023/03/19 04:21:56;;;;;;;16.77;10.77;;;;;;;8.25;100.00;101307.44;5103477;28;20237;-71
2023/03/19 04:24:22;;;;;;;15.67;10.83;;;;;;;8.18;100.00;101302.91;5087523;28;20220;-70
2023/03/19 04:26:48;;;;;;;16.67;9.80;;;;;;;8.19;100.00;101308.88;5090226;28;20183;-73
2023/03/19 04:29:15;;;;;;;15.70;9.93;;;;;;;8.14;100.00;101306.16;5090531;28;20244;-70
2023/03/19 04:31:41;;;;;;;13.90;9.40;;;;;;;8.14;100.00;101302.75;5086259;28;20239;-70
2023/03/19 04:34:06;;;;;;;14.67;9.67;;;;;;;8.19;100.00;101302.09;5088036;28;20216;-71
2023/03/19 04:36:32;;;;;;;13.83;9.33;;;;;;;8.13;100.00;101301.88;5105283;28;20236;-71
2023/03/19 04:38:58;;;;;;;12.67;9.87;;;;;;;8.08;100.00;101305.06;5091517;28;20210;-71
2023/03/19 04:41:25;;;;;;;12.13;9.90;;;;;;;8.05;100.00;101303.28;5085983;28;20751;-72
2023/03/19 04:44:04;;;;;;;15.50;9.90;;;;;;;8.01;100.00;101305.69;5090661;28;20196;-74
2023/03/19 04:46:30;;;;;;;13.77;9.60;;;;;;;7.96;100.00;101302.94;5091555;28;20648;-72
2023/03/19 04:48:56;;;;;;;11.90;9.30;;;;;;;7.94;100.00;101307.13;5094293;28;20190;-71
2023/03/19 04:51:21;;;;;;;11.43;9.37;;;;;;;7.91;100.00;101308.66;5092571;28;20214;-71
2023/03/19 04:53:48;;;;;;;11.40;8.77;;;;;;;7.89;100.00;101308.66;5091701;28;20227;-70
2023/03/19 04:56:15;;;;;;;12.17;9.43;;;;;;;7.89;100.00;101308.66;5092603;28;20202;-70
2023/03/19 04:58:42;;;;;;;11.37;8.90;;;;;;;7.84;100.00;101306.72;5092764;28;20192;-70
2023/03/19 05:01:08;;;;;;;9.93;8.27;;;;;;;7.81;100.00;101304.94;5087427;28;20221;-70
2023/03/19 05:04:12;;;;;;;10.90;8.77;;;;;;;7.78;100.00;101309.91;5089817;28;20191;-70
2023/03/19 05:06:37;;;;;;;10.40;9.03;;;;;;;7.74;100.00;101309.75;5093061;28;20752;-71
2023/03/19 05:09:05;;;;;;;11.73;10.50;;;;;;;7.86;100.00;101307.63;5109396;28;20192;-69
2023/03/19 05:11:31;;;;;;;14.27;12.20;;;;;;;7.95;100.00;101311.41;5091714;28;20248;-72
2023/03/19 05:14:03;;;;;;;14.00;11.97;;;;;;;7.93;100.00;101310.47;5091736;28;20191;-71
2023/03/19 05:16:37;;;;;;;15.73;11.73;;;;;;;7.90;100.00;101310.38;5093365;28;20214;-71
2023/03/19 05:19:03;;;;;;;16.93;13.03;;;;;;;7.91;100.00;101308.66;5096325;28;20195;-72
2023/03/19 05:21:30;;;;;;;14.83;12.20;;;;;;;7.93;100.00;101309.63;5090838;28;20299;-70
2023/03/19 05:23:56;;;;;;;16.50;13.03;;;;;;;7.94;100.00;101314.78;5091839;28;20656;-71
2023/03/19 05:26:22;;;;;;;15.70;12.00;;;;;;;7.94;100.00;101314.78;5107284;27;20203;-71
2023/03/19 05:29:09;;;;;;;17.40;11.73;;;;;;;7.92;100.00;101312.97;5103230;28;20213;-71
2023/03/19 05:31:47;;;;;;;15.37;11.37;;;;;;;7.92;100.00;101312.97;5090185;28;20234;-72
2023/03/19 05:34:13;;;;;;;12.63;11.03;;;;;;;7.99;100.00;101310.72;5092119;28;20230;-74
2023/03/19 05:36:38;;;;;;;13.63;11.57;;;;;;;8.04;100.00;101314.31;5092249;28;20264;-74
2023/03/19 05:39:10;;;;;;;13.10;11.70;;;;;;;8.08;100.00;101310.19;5089989;28;20192;-71
2023/03/19 05:41:38;;;;;;;14.03;12.07;;;;;;;8.08;100.00;101313.59;5092446;28;20211;-72
2023/03/19 05:44:05;;;;;;;14.97;12.20;;;;;;;8.12;100.00;101314.56;5092408;28;20233;-72
2023/03/19 05:46:51;;;;;;;15.47;12.50;;;;;;;8.15;100.00;101317.25;5108677;28;20287;-71
2023/03/19 05:49:18;;;;;;;19.03;13.73;;;;;;;8.22;100.00;101324.31;5091946;28;20188;-71
2023/03/19 05:51:44;;;;;;;18.90;15.87;;;;;;;8.32;100.00;101334.03;5110389;28;20203;-71
2023/03/19 05:54:10;;;;;;;19.13;15.43;;;;;;;8.37;100.00;101320.66;5089644;28;20585;-71
2023/03/19 05:56:44;;;;;;;18.33;15.97;;;;;;;8.40;100.00;101322.44;5108134;28;20699;-73
2023/03/19 05:59:36;;;;;;;18.37;14.70;;;;;;;8.45;100.00;101321.78;5089807;28;20231;-71
2023/03/19 06:02:31;;;;;;;20.97;16.43;;;;;;;8.52;100.00;101318.63;5091152;28;20232;-73
2023/03/19 06:05:12;;;;;;;19.60;16.67;;;;;;;8.55;100.00;101321.31;5090095;28;20224;-70
2023/03/19 06:07:37;;;;;;;20.57;17.33;;;;;;;8.56;100.00;101317.94;5090718;28;20310;-71
2023/03/19 06:10:08;;;;;;;21.97;17.67;;;;;;;8.58;100.00;101317.97;5090021;28;20264;-71
2023/03/19 06:12:33;;;;;;;20.67;16.17;;;;;;;8.60;100.00;101321.44;5089738;28;20297;-71
2023/03/19 06:15:01;;;;;;;21.10;17.17;;;;;;;8.60;100.00;101319.78;5108254;28;20274;-71
2023/03/19 06:17:39;;;;;;;19.57;16.13;;;;;;;8.63;100.00;101319.00;5109876;28;20211;-71
2023/03/19 06:20:09;;;;;;;26.90;22.07;;;;;;;8.65;100.00;101320.78;5086638;28;20682;-70
2023/03/19 06:22:35;;;;;;;24.73;20.40;;;;;;;8.69;100.00;101315.00;5090600;28;20216;-73
2023/03/19 06:25:01;;;;;;;24.37;19.03;;;;;;;8.74;100.00;101315.13;5094722;28;20187;-72
2023/03/19 06:27:28;;;;;;;22.60;19.23;;;;;;;8.80;100.00;101318.75;5092087;28;20210;-68
2023/03/19 06:30:04;;;;;;;24.23;19.27;;;;;;;8.83;100.00;101316.31;5090555;28;20191;-71
2023/03/19 06:32:31;;;;;;;21.97;19.27;;;;;;;8.86;100.00;101329.19;5090772;28;20220;-72
2023/03/19 06:35:04;;;;;;;22.50;19.77;;;;;;;8.90;100.00;101327.63;5090143;28;20184;-70
2023/03/19 06:37:29;;;;;;;23.73;20.00;;;;;;;8.92;100.00;101329.41;5089929;28;20208;-71
2023/03/19 06:39:55;;;;;;;25.43;19.80;;;;;;;8.92;100.00;101331.94;5107244;28;20196;-71
2023/03/19 06:42:21;;;;;;;24.10;20.37;;;;;;;8.96;100.00;101325.25;5108444;28;20693;-71
2023/03/19 06:44:47;;;;;;;24.83;20.50;;;;;;;8.99;100.00;101327.91;5090048;28;20198;-70
2023/03/19 06:47:13;;;;;;;24.23;20.23;;;;;;;9.09;100.00;101327.41;5106886;28;20191;-71
2023/03/19 06:49:40;;;;;;;24.77;20.53;;;;;;;9.27;100.00;101340.78;5089774;28;20379;-74
2023/03/19 06:52:06;;;;;;;23.37;20.03;;;;;;;9.44;100.00;101337.94;5109717;28;20298;-73
2023/03/19 06:54:32;;;;;;;25.53;19.63;;;;;;;9.52;100.00;101350.94;5108215;28;20325;-71
2023/03/19 06:56:58;;;;;;;25.20;20.53;;;;;;;9.64;100.00;101351.34;5091260;28;20239;-71
2023/03/19 06:59:23;;;;;;;26.20;19.30;;;;;;;9.77;100.00;101348.34;5108970;28;20202;-70
2023/03/19 07:01:49;;;;;;;23.00;20.23;;;;;;;9.94;100.00;101354.81;5109327;28;20233;-71
2023/03/19 07:04:15;;;;;;;23.80;20.10;;;;;;;10.12;100.00;101351.16;5106914;28;20196;-72
2023/03/19 07:06:41;;;;;;;23.97;20.23;;;;;;;10.17;100.00;101361.50;5109617;28;20195;-72
2023/03/19 07:09:06;;;;;;;23.30;18.70;;;;;;;10.16;100.00;101358.09;5109322;28;20192;-70
2023/03/19 07:11:32;;;;;;;20.13;18.00;;;;;;;10.31;100.00;101366.22;5104908;28;20215;-71
2023/03/19 07:13:57;;;;;;;24.07;17.33;;;;;;;10.50;100.00;101354.81;5108850;28;20192;-71
2023/03/19 07:16:23;;;;;;;21.27;19.00;;;;;;;10.54;100.00;101360.06;5108129;28;20207;-71
2023/03/19 07:18:48;;;;;;;20.27;17.77;;;;;;;10.70;100.00;101359.63;5105184;28;20202;-70
2023/03/19 07:21:14;;;;;;;21.33;17.33;;;;;;;10.85;100.00;101359.19;5109197;28;20688;-70
2023/03/19 07:23:40;;;;;;;19.80;17.40;;;;;;;10.91;100.00;101354.22;5108649;28;20192;-70
2023/03/19 07:26:05;;;;;;;20.10;16.23;;;;;;;11.00;100.00;101363.00;5108168;28;20227;-73
2023/03/19 07:28:31;;;;;;;18.90;16.10;;;;;;;11.30;100.00;101363.78;5107756;28;20227;-71
2023/03/19 07:30:57;;;;;;;19.27;16.10;;;;;;;11.54;100.00;101364.38;5108028;28;20194;-71
2023/03/19 07:33:22;;;;;;;19.90;15.63;;;;;;;11.70;100.00;101363.94;5109181;28;20188;-71
2023/03/19 07:35:48;;;;;;;18.17;15.00;;;;;;;11.79;100.00;101364.16;5093663;28;20195;-70
2023/03/19 07:38:13;;;;;;;17.13;14.73;;;;;;;12.11;100.00;101367.41;5107730;28;20220;-70
2023/03/19 07:40:39;;;;;;;17.07;15.27;;;;;;;12.24;100.00;101359.13;5107556;28;20235;-71
2023/03/19 07:43:05;;;;;;;16.93;14.20;;;;;;;12.52;100.00;101357.16;5104171;28;20192;-70
2023/03/19 07:45:31;;;;;;;14.00;12.60;;;;;;;12.74;100.00;101361.00;5108043;28;20265;-71
2023/03/19 07:47:56;;;;;;;15.60;13.40;;;;;;;12.86;100.00;101363.81;5108488;28;20585;-72
2023/03/19 07:50:21;;;;;;;14.70;13.10;;;;;;;12.64;100.00;101371.97;5107824;28;20195;-70
2023/03/19 07:52:50;;;;;;;15.17;12.80;;;;;;;12.90;100.00;101360.47;5108715;28;20328;-71
2023/03/19 07:55:15;;;;;;;13.87;12.40;;;;;;;13.26;100.00;101373.97;5104107;28;20191;-70
2023/03/19 07:57:41;;;;;;;14.97;12.60;;;;;;;13.53;100.00;101368.44;5090403;28;20207;-73
2023/03/19 08:00:07;;;;;;;13.77;12.17;;;;;;;13.72;100.00;101370.47;5107595;28;20789;-70
2023/03/19 08:02:38;;;;;;;12.00;10.90;;;;;;;13.92;100.00;101364.75;5108071;28;20729;-71
2023/03/19 08:05:04;;;;;;;12.27;11.03;;;;;;;14.16;100.00;101365.09;5104988;28;20194;-72
2023/03/19 08:07:30;;;;;;;13.83;12.07;;;;;;;14.49;100.00;101367.25;5108456;28;20195;-72
2023/03/19 08:09:57;;;;;;;13.80;11.10;;;;;;;14.52;100.00;101364.72;5108069;28;20219;-71
2023/03/19 08:12:25;;;;;;;11.77;10.57;;;;;;;14.71;100.00;101364.94;5106962;28;20241;-70
2023/03/19 08:14:50;;;;;;;13.93;10.33;;;;;;;14.63;100.00;101360.53;5105767;28;20843;-69
2023/03/19 08:17:16;;;;;;;11.80;9.87;;;;;;;14.85;100.00;101357.34;5091473;28;20204;-72
2023/03/19 08:19:42;;;;;;;12.20;9.43;;;;;;;14.72;100.00;101358.94;5112501;28;20625;-71
2023/03/19 08:22:08;;;;;;;11.67;10.27;;;;;;;14.91;100.00;101362.59;5110907;28;20214;-70
2023/03/19 08:24:34;;;;;;;10.90;9.80;;;;;;;14.92;100.00;101356.56;5109792;28;20766;-71
2023/03/19 08:26:59;;;;;;;10.17;9.00;;;;;;;15.31;100.00;101351.75;5111554;28;20188;-71
2023/03/19 08:29:26;;;;;;;11.30;9.97;;;;;;;15.39;100.00;101350.16;5094084;28;20241;-70
2023/03/19 08:31:53;;;;;;;10.23;9.23;;;;;;;15.64;100.00;101341.72;5109318;28;20695;-71
2023/03/19 08:34:18;;;;;;;11.07;9.20;;;;;;;16.01;100.00;101338.50;5094182;28;20196;-71
2023/03/19 08:36:44;;;;;;;10.43;9.33;;;;;;;16.40;100.00;101318.06;5111477;28;20219;-70
2023/03/19 08:39:09;;;;;;;9.70;8.80;;;;;;;16.36;100.00;101278.38;5112830;28;20187;-71
2023/03/19 08:41:35;;;;;;;9.10;8.20;;;;;;;16.68;100.00;101299.16;5109581;28;20243;-72
2023/03/19 08:44:00;;;;;;;9.93;8.83;;;;;;;16.79;100.00;101287.09;5111885;28;20199;-71
2023/03/19 08:46:26;;;;;;;10.37;8.87;;;;;;;16.42;100.00;101314.59;5111395;28;20645;-71
2023/03/19 08:48:52;;;;;;;14.40;9.07;;;;;;;16.52;100.00;101307.72;5112293;28;20317;-71
2023/03/19 08:51:18;;;;;;;9.43;8.43;;;;;;;16.68;100.00;101310.38;5110511;28;20207;-71
2023/03/19 08:53:43;;;;;;;10.30;7.97;;;;;;;16.40;100.00;101318.91;5093879;28;20231;-71
2023/03/19 08:56:09;;;;;;;9.63;8.80;;;;;;;15.94;100.00;101365.16;5111508;28;20659;-70
2023/03/19 08:58:34;;;;;;;9.67;8.77;;;;;;;16.28;100.00;101362.78;5110699;28;20563;-70
2023/03/19 09:01:08;;;;;;;10.37;8.47;;;;;;;16.64;100.00;101344.84;5111012;28;20211;-72
2023/03/19 09:03:34;;;;;;;9.63;7.67;;;;;;;16.96;100.00;101312.16;5092361;28;20282;-72
2023/03/19 09:06:02;;;;;;;8.73;6.10;;;;;;;17.52;100.00;101248.28;5111340;28;20265;-72
2023/03/19 09:08:29;;;;;;;8.33;7.27;;;;;;;16.91;100.00;101294.88;5107382;28;20669;-71
2023/03/19 09:10:55;;;;;;;9.27;7.50;;;;;;;17.59;100.00;101229.25;5110793;28;20191;-71
2023/03/19 09:13:22;;;;;;;7.60;6.70;;;;;;;18.64;100.00;101163.88;5110183;28;20204;-73
2023/03/19 09:15:48;;;;;;;8.20;6.30;;;;;;;18.65;100.00;101061.81;5110941;28;20573;-71
2023/03/19 09:18:14;;;;;;;8.98;6.55;;;;;;;18.82;100.00;101012.34;5110015;28;20203;-71
2023/03/19 09:20:40;;;;;;;7.15;6.40;;;;;;;18.58;100.00;101049.81;5110963;28;20192;-72
2023/03/19 09:23:06;;;;;;;8.13;6.20;;;;;;;19.00;100.00;101014.72;5107330;28;20199;-72
2023/03/19 09:25:32;;;;;;;7.00;5.97;;;;;;;21.60;98.80;100850.28;5093813;28;20259;-72
2023/03/19 09:27:57;;;;;;;6.20;5.47;;;;;;;24.32;61.49;100436.00;5109826;28;20257;-72
2023/03/19 09:30:23;;;;;;;6.03;5.43;;;;;;;26.35;47.49;100185.50;5110453;28;20222;-69
2023/03/19 09:32:48;;;;;;;5.88;5.28;;;;;;;28.09;43.14;100040.72;5111030;28;20223;-69
2023/03/19 09:35:14;;;;;;;6.10;5.05;;;;;;;28.80;39.63;100035.94;5107262;28;20188;-70
2023/03/19 09:37:40;;;;;;;7.43;5.25;;;;;;;30.46;38.27;100923.78;5110118;28;20203;-70
2023/03/19 09:40:06;;;;;;;5.90;5.32;;;;;;;30.08;36.94;100952.53;5108444;28;20260;-70
2023/03/19 09:43:00;;;;;;;6.13;5.50;;;;;;;29.74;39.24;100995.03;5090420;28;20222;-70
2023/03/19 09:45:28;;;;;;;6.03;5.47;;;;;;;31.43;35.80;100993.50;5107151;28;20263;-71
2023/03/19 09:48:03;;;;;;;5.97;5.03;;;;;;;32.48;35.25;101088.13;5110673;28;20224;-69
2023/03/19 09:50:33;;;;;;;6.00;5.35;;;;;;;31.70;35.06;101109.19;5106991;28;20191;-70
2023/03/19 09:53:05;;;;;;;5.60;5.10;;;;;;;32.16;33.43;101097.34;5103343;28;20219;-71
2023/03/19 09:55:40;;;;;;;5.78;5.20;;;;;;;32.39;32.91;101111.75;5108614;28;20282;-68
2023/03/19 09:58:29;;;;;;;5.93;5.32;;;;;;;32.46;33.54;101113.91;5109833;28;20210;-69
2023/03/19 10:00:56;;;;;;;6.00;5.13;;;;;;;33.29;32.11;101109.00;5103782;28;20191;-71
2023/03/19 10:03:52;;;;;;;5.88;4.70;;;;;;;34.39;31.05;101127.59;5110809;28;20190;-70
2023/03/19 10:06:26;;;;;;;5.65;4.80;;;;;;;35.51;29.59;101139.25;5107690;28;20278;-70
2023/03/19 10:09:04;;;;;;;8.27;4.93;;;;;;;36.28;28.84;101180.06;5106712;28;20206;-70
2023/03/19 10:11:41;;;;;;;5.57;4.78;;;;;;;34.94;29.34;101192.56;5107796;28;20297;-70
2023/03/19 10:14:16;;;;;;;6.93;5.10;;;;;;;34.27;29.76;101187.88;5106971;28;20240;-71
2023/03/19 10:16:46;;;;;;;5.05;4.50;;;;;;;34.98;28.77;101190.50;5108551;28;20207;-70
2023/03/19 10:19:17;;;;;;;5.07;4.57;;;;;;;34.42;29.41;101200.06;5101440;28;20245;-70
2023/03/19 10:21:51;;;;;;;5.68;4.43;;;;;;;34.14;30.27;101205.69;5107429;28;20307;-69
2023/03/19 10:24:22;;;;;;;5.50;4.93;;;;;;;34.05;30.29;101216.13;5096813;28;20287;-70
2023/03/19 10:26:54;;;;;;;5.30;4.80;;;;;;;35.22;29.04;101200.13;5105376;28;20195;-71
2023/03/19 10:29:22;;;;;;;5.57;5.05;;;;;;;36.43;27.67;101197.47;5105300;28;20272;-71
2023/03/19 10:32:04;;;;;;;5.45;4.45;;;;;;;34.52;30.16;101225.03;5109944;28;20211;-70
2023/03/19 10:34:33;;;;;;;5.97;4.68;;;;;;;35.07;29.79;101232.44;5109534;28;20257;-69
2023/03/19 10:37:12;;;;;;;5.95;4.80;;;;;;;36.27;28.30;101209.53;5110099;28;20211;-70
2023/03/19 10:39:40;;;;;;;4.93;4.43;;;;;;;37.40;26.96;101216.00;5107118;28;20223;-69
2023/03/19 10:42:29;;;;;;;6.05;4.50;;;;;;;38.71;26.05;101218.44;5109025;28;20218;-70
2023/03/19 10:45:22;;;;;;;7.30;4.70;;;;;;;37.20;25.99;101224.88;5076578;28;20198;-70
2023/03/19 10:47:48;;;;;;;6.38;4.43;;;;;;;37.66;25.44;101215.47;5105946;28;20198;-70
2023/03/19 10:50:19;;;;;;;4.20;3.80;;;;;;;38.37;24.35;101214.41;5106711;28;20188;-70
2023/03/19 10:52:50;;;;;;;4.05;3.58;;;;;;;38.81;23.05;101212.06;5107298;28;20234;-69
2023/03/19 10:55:24;;;;;;;4.38;3.90;;;;;;;39.71;22.83;101211.50;5102290;28;20186;-70
2023/03/19 10:58:00;;;;;;;5.13;3.92;;;;;;;40.77;21.74;101212.59;5104537;28;20672;-70
2023/03/19 11:00:32;;;;;;;6.65;4.18;;;;;;;37.53;23.96;101233.53;5088808;28;20265;-69
2023/03/19 11:02:58;;;;;;;7.93;4.40;;;;;;;33.91;27.33;101272.09;5103983;28;20756;-69
2023/03/19 11:05:29;;;;;;;5.65;4.22;;;;;;;35.15;26.63;101270.00;5107587;28;20192;-69
2023/03/19 11:08:05;;;;;;;5.28;3.72;;;;;;;38.18;24.35;101244.69;5089330;28;20553;-71
2023/03/19 11:10:35;;;;;;;5.43;3.95;;;;;;;39.84;21.99;101216.56;5107342;28;20190;-69
2023/03/19 11:13:20;;;;;;;4.97;4.10;;;;;;;40.16;22.57;101215.16;5107165;28;20210;-70
2023/03/19 11:15:47;;;;;;;7.03;3.75;;;;;;;37.87;23.20;101232.31;5104173;28;20195;-69
2023/03/19 11:18:37;;;;;;;6.00;3.70;;;;;;;34.35;25.54;101244.06;5104581;28;20273;-70
2023/03/19 11:21:22;;;;;;;6.30;3.58;;;;;;;38.74;22.87;101218.16;5107892;28;20696;-69
2023/03/19 11:23:52;;;;;;;4.78;3.85;;;;;;;38.80;21.23;101214.91;5102713;28;20781;-69
2023/03/19 11:26:19;;;;;;;4.93;3.00;;;;;;;37.36;22.35;101233.28;5109373;28;20195;-69